createdAt,value
2022-07-25T00:04:25.882Z,101072.38
2022-07-25T00:09:16.336Z,101063.97
2022-07-25T00:14:09.808Z,101066.41
2022-07-25T00:19:00.487Z,101062.69
2022-07-25T00:23:50.250Z,101054.13
2022-07-25T00:28:39.941Z,101041.03
2022-07-25T00:33:32.872Z,101038.75
2022-07-25T00:38:22.789Z,101038.09
2022-07-25T00:43:13.742Z,101031.25
2022-07-25T00:48:03.459Z,101032.53
2022-07-25T00:52:55.779Z,101017.75
2022-07-25T00:57:45.716Z,101010.06
2022-07-25T01:02:35.489Z,101007.69
2022-07-25T01:07:26.031Z,101005.50
2022-07-25T01:12:18.319Z,100988.50
2022-07-25T01:17:08.324Z,100986.63
2022-07-25T01:22:00.645Z,100985.28
2022-07-25T01:26:50.293Z,100974.84
2022-07-25T01:31:40.083Z,100985.03
2022-07-25T01:36:29.850Z,100982.41
2022-07-25T01:41:23.045Z,100960.59
2022-07-25T01:46:12.875Z,100960.28
2022-07-25T01:51:02.679Z,100956.47
2022-07-25T01:55:52.744Z,100966.19
2022-07-25T02:00:47.267Z,100956.56
2022-07-25T02:05:37.358Z,100937.91
2022-07-25T02:10:27.073Z,100944.41
2022-07-25T02:15:16.857Z,100938.34
2022-07-25T02:20:10.199Z,100927.03
2022-07-25T02:24:59.977Z,100930.72
2022-07-25T02:29:49.687Z,100923.88
2022-07-25T02:34:39.391Z,100908.22
2022-07-25T02:39:31.653Z,100901.16
2022-07-25T02:44:21.640Z,100907.56
2022-07-25T02:49:11.392Z,100898.06
2022-07-25T02:54:01.227Z,100891.47
2022-07-25T02:58:53.497Z,100885.53
2022-07-25T03:03:43.183Z,100881.19
2022-07-25T03:08:33.156Z,100872.56
2022-07-25T03:13:22.954Z,100876.00
2022-07-25T03:18:15.470Z,100874.44
2022-07-25T03:23:05.385Z,100878.09
2022-07-25T03:27:55.106Z,100874.91
2022-07-25T03:32:44.805Z,100877.03
2022-07-25T03:37:37.751Z,100877.19
2022-07-25T03:42:32.184Z,100878.63
2022-07-25T03:47:24.786Z,100872.22
2022-07-25T03:52:14.637Z,100892.28
2022-07-25T03:57:07.221Z,100889.66
2022-07-25T04:01:57.478Z,100892.72
2022-07-25T04:06:47.263Z,100890.41
2022-07-25T04:11:38.523Z,100883.56
2022-07-25T04:16:31.431Z,100880.06
2022-07-25T04:21:21.207Z,100887.09
2022-07-25T04:26:10.982Z,100874.72
2022-07-25T04:31:00.845Z,100873.31
2022-07-25T04:35:54.291Z,100870.03
2022-07-25T04:40:44.659Z,100883.03
2022-07-25T04:45:34.810Z,100867.44
2022-07-25T04:50:25.858Z,100880.75
2022-07-25T04:55:18.457Z,100888.66
2022-07-25T05:00:10.800Z,100870.41
2022-07-25T05:05:03.034Z,100871.16
2022-07-25T05:09:53.158Z,100878.19
2022-07-25T05:14:45.743Z,100888.78
2022-07-25T05:19:38.225Z,100884.03
2022-07-25T05:24:27.635Z,100886.94
2022-07-25T05:29:17.211Z,100891.59
2022-07-25T05:34:10.003Z,100898.00
2022-07-25T05:38:59.616Z,100903.25
2022-07-25T05:43:49.095Z,100893.69
2022-07-25T05:48:38.979Z,100893.69
2022-07-25T05:53:31.351Z,100896.34
2022-07-25T05:58:22.202Z,100905.16
2022-07-25T06:03:13.595Z,100897.41
2022-07-25T06:08:03.759Z,100899.41
2022-07-25T06:12:55.891Z,100909.75
2022-07-25T06:17:45.667Z,100904.38
2022-07-25T06:22:35.245Z,100909.56
2022-07-25T06:27:29.093Z,100897.00
2022-07-25T06:32:21.473Z,100912.88
2022-07-25T06:37:10.971Z,100922.94
2022-07-25T06:42:00.465Z,100924.00
2022-07-25T06:46:56.643Z,100923.13
2022-07-25T06:51:48.637Z,100918.59
2022-07-25T06:56:38.080Z,100922.25
2022-07-25T07:01:27.626Z,100921.28
2022-07-25T07:06:17.313Z,100924.72
2022-07-25T07:11:09.862Z,100920.28
2022-07-25T07:15:59.694Z,100913.78
2022-07-25T07:20:49.157Z,100918.81
2022-07-25T07:25:38.716Z,100923.84
2022-07-25T07:30:58.609Z,100923.66
2022-07-25T07:35:41.344Z,100920.75
2022-07-25T07:40:30.956Z,100929.66
2022-07-25T07:45:21.501Z,100934.78
2022-07-25T07:50:14.276Z,100928.81
2022-07-25T07:55:16.212Z,100946.91
2022-07-25T08:00:06.378Z,100938.91
2022-07-25T08:05:01.585Z,100925.75
2022-07-25T08:09:54.145Z,100941.22
2022-07-25T08:14:43.624Z,100940.53
2022-07-25T08:19:32.990Z,100945.53
2022-07-25T08:24:22.549Z,100932.28
2022-07-25T08:29:20.646Z,100941.97
2022-07-25T08:34:12.343Z,100927.28
2022-07-25T08:39:01.776Z,100944.31
2022-07-25T08:43:52.243Z,100932.81
2022-07-25T08:48:44.991Z,100954.28
2022-07-25T08:53:35.438Z,100941.44
2022-07-25T08:58:25.243Z,100944.97
2022-07-25T09:03:15.155Z,100946.81
2022-07-25T09:08:11.782Z,100941.47
2022-07-25T09:13:02.381Z,100941.13
2022-07-25T09:17:52.837Z,100949.53
2022-07-25T09:22:51.572Z,100965.56
2022-07-25T09:27:43.684Z,100950.91
2022-07-25T09:32:33.223Z,100969.94
2022-07-25T09:37:28.139Z,100984.53
2022-07-25T09:42:18.831Z,100985.13
2022-07-25T09:47:16.530Z,100992.06
2022-07-25T09:52:06.235Z,101000.94
2022-07-25T09:56:55.663Z,101010.22
2022-07-25T10:02:00.661Z,101013.88
2022-07-25T10:06:58.209Z,101038.59
2022-07-25T10:12:03.087Z,101014.22
2022-07-25T10:16:52.867Z,101027.84
2022-07-25T10:21:43.749Z,101025.47
2022-07-25T10:26:38.806Z,101039.69
2022-07-25T10:31:29.620Z,101045.66
2022-07-25T10:36:19.374Z,101051.00
2022-07-25T10:41:15.448Z,101040.81
2022-07-25T10:46:14.141Z,101042.09
2022-07-25T10:51:04.521Z,101046.16
2022-07-25T10:56:05.857Z,101053.06
2022-07-25T11:00:56.196Z,101055.38
2022-07-25T11:05:59.283Z,101060.84
2022-07-25T11:10:53.675Z,101068.81
2022-07-25T11:15:43.431Z,101062.53
2022-07-25T11:20:32.844Z,101069.47
2022-07-25T11:25:25.864Z,101069.06
2022-07-25T11:30:16.978Z,101063.78
2022-07-25T11:35:06.662Z,101061.25
2022-07-25T11:39:56.557Z,101073.22
2022-07-25T11:44:50.237Z,101087.75
2022-07-25T11:49:51.305Z,101094.38
2022-07-25T11:54:40.785Z,101095.00
2022-07-25T11:59:30.204Z,101088.69
2022-07-25T12:04:22.538Z,101078.44
2022-07-25T12:09:18.940Z,101102.94
2022-07-25T12:14:09.320Z,101090.94
2022-07-25T12:18:58.870Z,101101.59
2022-07-25T12:23:51.075Z,101101.47
2022-07-25T12:28:40.601Z,101075.66
2022-07-25T12:33:30.299Z,101090.13
2022-07-25T12:38:19.773Z,101096.06
2022-07-25T12:43:12.236Z,101086.38
2022-07-25T12:48:01.635Z,101086.19
2022-07-25T12:52:51.037Z,101083.19
2022-07-25T12:57:40.608Z,101098.06
2022-07-25T13:02:32.783Z,101099.97
2022-07-25T13:07:22.425Z,101076.91
2022-07-25T13:12:16.429Z,101089.66
2022-07-25T13:17:06.489Z,101089.81
2022-07-25T13:21:58.906Z,101104.13
2022-07-25T13:26:48.833Z,101104.66
2022-07-25T13:31:38.359Z,101104.09
2022-07-25T13:36:27.941Z,101107.84
2022-07-25T13:41:19.962Z,101094.81
2022-07-25T13:46:10.505Z,101107.53
2022-07-25T13:51:00.118Z,101111.22
2022-07-25T13:55:51.981Z,101115.16
2022-07-25T14:00:44.130Z,101123.41
2022-07-25T14:05:33.703Z,101124.03
2022-07-25T14:10:23.187Z,101148.53
2022-07-25T14:15:13.615Z,101126.84
2022-07-25T14:20:06.107Z,101134.44
2022-07-25T14:24:55.504Z,101134.97
2022-07-25T14:29:45.737Z,101133.06
2022-07-25T14:34:35.700Z,101132.34
2022-07-25T14:39:28.327Z,101134.72
2022-07-25T14:44:18.453Z,101125.47
2022-07-25T14:49:11.394Z,101138.81
2022-07-25T14:54:02.152Z,101126.59
2022-07-25T14:58:55.181Z,101129.91
2022-07-25T15:03:45.238Z,101139.00
2022-07-25T15:08:34.825Z,101147.38
2022-07-25T15:13:32.596Z,101142.28
2022-07-25T15:18:24.875Z,101142.75
2022-07-25T15:23:14.345Z,101132.56
2022-07-25T15:28:04.502Z,101127.81
2022-07-25T15:32:53.937Z,101123.88
2022-07-25T15:37:48.120Z,101133.06
2022-07-25T15:42:37.745Z,101141.56
2022-07-25T15:47:27.548Z,101142.00
2022-07-25T15:52:18.110Z,101141.44
2022-07-25T15:57:11.004Z,101160.47
2022-07-25T16:02:00.693Z,101198.63
2022-07-25T16:06:50.428Z,101187.81
2022-07-25T16:11:40.137Z,101168.19
2022-07-25T16:16:32.545Z,101176.63
2022-07-25T16:21:22.356Z,101160.47
2022-07-25T16:26:12.414Z,101175.84
2022-07-25T16:31:03.450Z,101166.50
2022-07-25T16:35:56.440Z,101197.25
2022-07-25T16:40:46.336Z,101204.19
2022-07-25T16:45:38.321Z,101186.19
2022-07-25T16:50:27.756Z,101188.41
2022-07-25T16:55:20.336Z,101183.78
2022-07-25T17:00:10.804Z,101189.47
2022-07-25T17:05:03.868Z,101194.44
2022-07-25T17:09:53.377Z,101203.44
2022-07-25T17:14:45.847Z,101208.00
2022-07-25T17:19:39.780Z,101203.91
2022-07-25T17:24:29.313Z,101200.78
2022-07-25T17:29:18.975Z,101203.56
2022-07-25T17:34:11.092Z,101202.72
2022-07-25T17:39:00.552Z,101215.31
2022-07-25T17:43:49.930Z,101201.41
2022-07-25T17:48:39.966Z,101209.34
2022-07-25T17:53:32.104Z,101207.00
2022-07-25T17:58:21.540Z,101221.47
2022-07-25T18:03:10.991Z,101215.63
2022-07-25T18:08:01.835Z,101216.56
2022-07-25T18:12:54.172Z,101214.97
2022-07-25T18:17:44.679Z,101212.66
2022-07-25T18:22:35.202Z,101217.88
2022-07-25T18:27:26.690Z,101210.09
2022-07-25T18:32:19.551Z,101211.75
2022-07-25T18:37:09.554Z,101230.22
2022-07-25T18:42:04.884Z,101227.88
2022-07-25T18:46:54.844Z,101249.16
2022-07-25T18:51:46.888Z,101244.09
2022-07-25T18:56:36.433Z,101245.16
2022-07-25T19:01:26.154Z,101248.78
2022-07-25T19:06:16.381Z,101246.34
2022-07-25T19:11:08.812Z,101252.66
2022-07-25T19:15:58.358Z,101253.56
2022-07-25T19:20:50.682Z,101257.19
2022-07-25T19:25:49.475Z,101248.59
2022-07-25T19:30:42.696Z,101254.97
2022-07-25T19:35:37.464Z,101267.31
2022-07-25T19:40:26.976Z,101266.53
2022-07-25T19:45:16.451Z,101273.63
2022-07-25T19:50:10.055Z,101284.31
2022-07-25T19:55:00.350Z,101283.56
2022-07-25T19:59:49.764Z,101288.06
2022-07-25T20:04:39.229Z,101302.28
2022-07-25T20:09:32.761Z,101299.75
2022-07-25T20:14:22.185Z,101303.31
2022-07-25T20:19:15.106Z,101294.78
2022-07-25T20:24:05.765Z,101295.88
2022-07-25T20:29:01.251Z,101310.88
2022-07-25T20:33:51.154Z,101310.16
2022-07-25T20:38:40.544Z,101308.44
2022-07-25T20:43:31.307Z,101308.72
2022-07-25T20:48:23.426Z,101309.75
2022-07-25T20:53:12.928Z,101308.09
2022-07-25T20:58:03.147Z,101315.13
2022-07-25T21:02:52.684Z,101322.25
2022-07-25T21:07:44.786Z,101311.84
2022-07-25T21:12:35.503Z,101310.03
2022-07-25T21:17:24.906Z,101303.94
2022-07-25T21:22:14.387Z,101305.78
2022-07-25T21:27:06.832Z,101314.47
2022-07-25T21:31:56.496Z,101317.97
2022-07-25T21:36:45.980Z,101318.75
2022-07-25T21:41:35.561Z,101318.69
2022-07-25T21:46:27.699Z,101323.84
2022-07-25T21:51:19.151Z,101320.38
2022-07-25T21:56:12.602Z,101327.25
2022-07-25T22:01:02.172Z,101327.16
2022-07-25T22:05:54.378Z,101328.97
2022-07-25T22:10:43.844Z,101318.47
2022-07-25T22:15:33.270Z,101333.25
2022-07-25T22:20:22.976Z,101333.25
2022-07-25T22:25:15.358Z,101332.34
2022-07-25T22:30:05.096Z,101339.19
2022-07-25T22:34:54.530Z,101340.84
2022-07-25T22:39:43.916Z,101334.69
2022-07-25T22:44:35.936Z,101340.91
2022-07-25T22:49:26.299Z,101343.53
2022-07-25T22:54:15.862Z,101347.13
2022-07-25T22:59:05.759Z,101343.81
2022-07-25T23:03:58.367Z,101342.97
2022-07-25T23:08:47.994Z,101345.47
2022-07-25T23:13:38.065Z,101341.78
2022-07-25T23:18:27.702Z,101337.38
2022-07-25T23:23:19.903Z,101340.00
2022-07-25T23:28:09.383Z,101347.06
2022-07-25T23:32:58.815Z,101347.06
2022-07-25T23:37:49.019Z,101352.38
2022-07-25T23:42:41.177Z,101348.16
2022-07-25T23:47:40.734Z,101348.25
2022-07-25T23:52:31.364Z,101352.69
2022-07-25T23:57:20.900Z,101357.94
